METAR Data
IDs: Format: Raw Decoded Include TAF

Data at: 0747 UTC 18 Nov 2018

PAQH 180711Z AUTO 00000KT 10SM -RA BKN019 OVC031 03/03 A2928 RMK AO2 P0000
PAQH 180656Z AUTO 00000KT 10SM -RA SCT019 OVC033 03/02 A2928 RMK AO2 SLP914 P0002 T00280022
PAQH 180556Z AUTO 08003KT 10SM -RA BKN037 OVC045 03/03 A2927 RMK AO2 SLP911 P0002 60018 T00330033 10039 20028 53003
PAQH 180456Z AUTO 00000KT 7SM -RA BKN039 OVC050 03/03 A2926 RMK AO2 SLP910 P0002 T00330028
PAQH 180356Z AUTO 10005KT 10SM -RA OVC037 03/03 A2926 RMK AO2 SLP909 P0003 T00330033
PAQH 180256Z AUTO 07005KT 8SM -RA FEW017 OVC038 04/03 A2926 RMK AO2 SLP908 P0003 60011 T00390033 56006
PAQH 180231Z AUTO 08004KT 9SM -RA SCT016 OVC036 03/03 A2926 RMK AO2 P0002
PAQH 180224Z AUTO 08005KT 9SM -RA FEW013 BKN025 OVC038 03/03 A2926 RMK AO2 P0001
PAQH 180213Z AUTO 07005KT 7SM -RA FEW021 SCT027 OVC038 03/03 A2926 RMK AO2 P0001
PAQH 180156Z AUTO 05004KT 5SM -RA BR BKN025 OVC033 04/03 A2926 RMK AO2 SLP908 P0004 T00390033
PAQH 180029Z AUTO 36005KT 10SM -RA BKN029 OVC036 04/04 A2927 RMK AO2 P0002
PAQH 172356Z AUTO 36005KT 4SM -RA BR BKN030 OVC036 04/04 A2928 RMK AO2 SLP914 P0006 60025 T00390039 10044 20033 58015
PAQH 172256Z AUTO 01006KT 9SM -RA BKN039 OVC047 04/04 A2929 RMK AO2 SLP920 P0006 T00440039
PAQH 172156Z AUTO 03007KT 8SM -RA FEW026 OVC035 04/04 A2931 RMK AO2 SLP925 P0008 T00390039
PAQH 172056Z AUTO 03007KT 3SM -RA BR BKN039 OVC047 04/03 A2932 RMK AO2 SLP929 P0005 60005 T00390033 58005
PAQH 172030Z AUTO 04007KT 3SM -RA BR OVC038 04/03 A2933 RMK AO2 P0001
PAQH 172023Z AUTO 03006KT 1 3/4SM -RA BR FEW028 OVC038 04/03 A2933 RMK AO2 P0001
PAQH 172006Z AUTO 04005KT 6SM -RA BR SCT028 OVC040 04/03 A2933 RMK AO2 P0000
PAQH 171956Z AUTO 03004KT 8SM -RA FEW024 BKN029 OVC042 04/03 A2933 RMK AO2 SLP932 P0000 T00390033
PAQH 171911Z AUTO 00000KT 9SM -RA BKN022 BKN036 OVC048 04/03 A2933 RMK AO2 P0000
PAQH 171856Z AUTO 06003KT 8SM -RA SCT029 BKN036 OVC048 04/03 A2933 RMK AO2 SLP934 P0000 T00390033
PAQH 171656Z AUTO 06004KT 9SM FEW032 BKN041 OVC055 03/03 A2934 RMK AO2 SLP936 T00330028
PAQH 171556Z AUTO 05006KT 10SM OVC033 04/03 A2935 RMK AO2 RAE10 SLP940 P0000 T00390028
PAQH 171456Z AUTO 05003KT 10SM -RA BKN037 OVC045 05/04 A2936 RMK AO2 RAE00B18 SLP942 P0000 60000 T00500039 56016
PAQH 171256Z AUTO 09006KT 10SM OVC033 05/04 A2939 RMK AO2 RAE13 SLP951 P0000 T00500039
PAQH 171156Z AUTO 07006KT 10SM -RA OVC038 05/03 A2941 RMK AO2 SLP958 P0000 60000 T00500033 10056 20039 58013
PAQH 171056Z AUTO 09008KT 10SM -RA BKN040 OVC048 05/03 A2942 RMK AO2 RAB0959 SLP963 P0000 T00500033
PAQH 171018Z AUTO 07006KT 10SM -RA FEW026 BKN047 OVC060 05/03 A2943 RMK AO2 RAB0959 P0000
PAQH 170956Z AUTO 08006KT 10SM SCT023 BKN031 OVC049 04/03 A2944 RMK AO2 SLP969 T00440033
PAQH 170930Z AUTO 08009KT 10SM BKN025 OVC060 04/03 A2944 RMK AO2
PAQH 170903Z AUTO 07009KT 10SM SCT029 BKN048 OVC075 04/03 A2944 RMK AO2
PAQH 170856Z AUTO 06008KT 10SM BKN029 BKN040 OVC055 04/03 A2945 RMK AO2 RAB05E17 SLP971 P0000 60000 T00390033 400560006 58013
PAQH 170844Z AUTO 07008KT 10SM BKN029 OVC050 04/03 A2945 RMK AO2 RAB05E17 P0000
PAQH 170829Z AUTO 09009KT 10SM FEW022 BKN031 OVC050 05/04 A2945 RMK AO2 RAB05E17 P0000
PAQH 170756Z AUTO 07007KT 10SM BKN024 BKN060 OVC080 04/03 A2946 RMK AO2 SLP975 T00440033
PAQH 170740Z AUTO 05008KT 10SM SCT024 BKN060 OVC080 04/03 A2946 RMK AO2
PAQH 170656Z AUTO 05009KT 10SM OVC026 06/03 A2947 RMK AO2 SLP981 T00560033
PAQH 170556Z AUTO 04008KT 10SM OVC024 04/02 A2948 RMK AO2 SLP984 T00390022 10050 20033 56017
PAQH 170456Z AUTO 03009KT 10SM BKN022 OVC029 04/02 A2949 RMK AO2 SLP988 T00440022
PAQH 170356Z AUTO 04011KT 10SM OVC026 04/02 A2951 RMK AO2 SLP993 T00390022
PAQH 170337Z AUTO 05014KT 10SM BKN028 OVC039 04/02 A2952 RMK AO2
PAQH 170256Z AUTO 06004KT 10SM FEW031 OVC043 04/02 A2953 RMK AO2 SLP001 T00440022 58019
PAQH 170156Z AUTO 03003KT 10SM BKN040 OVC047 04/03 A2956 RMK AO2 SLP009 T00390028
PAQH 170056Z AUTO 03005KT 10SM OVC039 05/03 A2957 RMK AO2 SLP014 T00500028
PAQH 162356Z AUTO 03007KT 10SM BKN047 OVC055 05/02 A2959 RMK AO2 SLP020 60000 T00500022 10050 20011 58024
PAQH 162256Z AUTO 05006KT 10SM BKN055 OVC070 04/02 A2962 RMK AO2 SLP030 T00440022
PAQH 162156Z AUTO 04004KT 10SM OVC049 04/02 A2964 RMK AO2 SLP038 T00390017
PAQH 162056Z AUTO 03005KT 10SM BKN041 OVC049 03/01 A2966 RMK AO2 SLP045 60000 T00330011 58008
PAQH 161956Z AUTO 04004KT 10SM OVC043 02/01 A2968 RMK AO2 RAE22UPB16E21 SLP050 P0000 T00220011 FZRANO